Time;durP1;ratioP1;P1;durP2;ratioP2;P2;SDS_P1;SDS_P2;PMS_P1;PMS_P2;Temp;Humidity;BMP_temperature;BMP_pressure;BME280_temperature;BME280_humidity;BME280_pressure;Samples;Min_cycle;Max_cycle;Signal;HPM_P1;HPM_P2
2023/07/15 00:03:28;;;;;;;8.43;7.63;;;;;;;;;;10259945;28;20091;-67
2023/07/15 00:08:24;;;;;;;9.43;8.38;;;;;;;;;;10256900;28;20073;-66
2023/07/15 00:13:20;;;;;;;8.73;7.93;;;;;;;;;;10271254;28;20139;-65
2023/07/15 00:18:17;;;;;;;10.88;8.57;;;;;;;;;;10263103;28;20508;-65
2023/07/15 00:23:20;;;;;;;9.38;8.48;;;;;;;;;;10259535;28;20045;-65
2023/07/15 00:28:17;;;;;;;8.82;8.00;;;;;;;;;;10258231;28;20544;-65
2023/07/15 00:33:15;;;;;;;9.18;8.38;;;;;;;;;;10256844;28;20585;-65
2023/07/15 00:38:12;;;;;;;9.95;8.95;;;;;;;;;;10262224;28;20490;-65
2023/07/15 00:43:27;;;;;;;9.15;8.13;;;;;;;;;;10254364;28;20045;-65
2023/07/15 00:48:27;;;;;;;8.85;7.95;;;;;;;;;;10275438;28;20502;-67
2023/07/15 00:53:26;;;;;;;8.60;7.80;;;;;;;;;;10274688;28;20038;-65
2023/07/15 00:58:22;;;;;;;10.23;8.40;;;;;;;;;;10275818;28;20384;-65
2023/07/15 01:03:19;;;;;;;9.27;8.38;;;;;;;;;;10266512;28;20465;-65
2023/07/15 01:08:15;;;;;;;8.43;7.63;;;;;;;;;;10272333;28;20414;-65
2023/07/15 01:13:11;;;;;;;8.63;7.82;;;;;;;;;;10264782;28;20061;-65
2023/07/15 01:18:08;;;;;;;8.95;7.95;;;;;;;;;;10256872;28;20045;-65
2023/07/15 01:23:04;;;;;;;13.35;8.68;;;;;;;;;;10270716;28;20045;-65
2023/07/15 01:28:00;;;;;;;8.88;8.05;;;;;;;;;;10272689;28;20059;-65
2023/07/15 01:32:57;;;;;;;9.07;8.18;;;;;;;;;;10276746;28;20507;-66
2023/07/15 01:37:53;;;;;;;9.20;8.30;;;;;;;;;;10271638;28;20128;-67
2023/07/15 01:42:49;;;;;;;8.35;7.63;;;;;;;;;;10268507;28;20083;-67
2023/07/15 01:47:46;;;;;;;8.93;7.85;;;;;;;;;;10259713;28;20045;-66
2023/07/15 01:52:42;;;;;;;8.02;7.28;;;;;;;;;;10262772;28;20045;-67
2023/07/15 01:57:41;;;;;;;8.93;8.13;;;;;;;;;;10272477;28;20037;-67
2023/07/15 02:02:38;;;;;;;8.10;7.35;;;;;;;;;;10264693;28;20499;-65
2023/07/15 02:07:34;;;;;;;8.45;7.65;;;;;;;;;;10259273;28;21657;-66
2023/07/15 02:12:31;;;;;;;8.15;7.35;;;;;;;;;;10277542;28;20167;-67
2023/07/15 02:17:27;;;;;;;9.48;8.40;;;;;;;;;;10259842;28;20103;-67
2023/07/15 02:22:23;;;;;;;8.73;8.02;;;;;;;;;;10278303;28;20518;-65
2023/07/15 02:27:20;;;;;;;9.15;7.55;;;;;;;;;;10266616;28;20052;-67
2023/07/15 02:32:34;;;;;;;8.85;7.57;;;;;;;;;;10262352;28;20080;-66
2023/07/15 02:37:31;;;;;;;7.75;7.10;;;;;;;;;;10261066;28;20057;-68
2023/07/15 02:42:28;;;;;;;8.93;7.97;;;;;;;;;;10273352;28;20464;-67
2023/07/15 02:47:24;;;;;;;9.35;8.50;;;;;;;;;;10251675;28;20040;-66
2023/07/15 02:52:20;;;;;;;8.60;7.70;;;;;;;;;;10267175;28;20051;-66
2023/07/15 02:57:17;;;;;;;9.60;7.45;;;;;;;;;;10263641;28;20449;-67
2023/07/15 03:02:13;;;;;;;9.10;7.65;;;;;;;;;;10260231;28;20545;-68
2023/07/15 03:07:12;;;;;;;8.75;7.95;;;;;;;;;;10262826;28;20052;-67
2023/07/15 03:12:09;;;;;;;9.45;8.63;;;;;;;;;;10264138;28;20060;-67
2023/07/15 03:17:05;;;;;;;9.38;8.45;;;;;;;;;;10261017;28;20044;-66
2023/07/15 03:22:03;;;;;;;9.32;8.45;;;;;;;;;;10268913;28;20131;-66
2023/07/15 03:26:59;;;;;;;9.65;8.65;;;;;;;;;;10259023;28;20058;-67
2023/07/15 03:31:55;;;;;;;8.82;8.02;;;;;;;;;;10259011;28;20052;-67
2023/07/15 03:36:52;;;;;;;7.95;7.28;;;;;;;;;;10263408;28;20079;-67
2023/07/15 03:41:48;;;;;;;8.95;8.15;;;;;;;;;;10263656;28;20099;-66
2023/07/15 03:46:45;;;;;;;9.98;8.25;;;;;;;;;;10263100;28;20138;-65
2023/07/15 03:51:43;;;;;;;9.13;8.30;;;;;;;;;;10256966;28;20045;-66
2023/07/15 03:56:40;;;;;;;9.05;8.15;;;;;;;;;;10265077;28;20064;-65
2023/07/15 04:01:38;;;;;;;8.63;7.90;;;;;;;;;;10253179;28;20126;-66
2023/07/15 04:06:35;;;;;;;9.13;8.00;;;;;;;;;;10264433;28;20045;-65
2023/07/15 04:11:32;;;;;;;8.65;7.85;;;;;;;;;;10264094;28;20132;-65
2023/07/15 04:16:29;;;;;;;9.20;8.43;;;;;;;;;;10261700;28;20735;-66
2023/07/15 04:21:25;;;;;;;8.60;7.90;;;;;;;;;;10268966;28;20053;-66
2023/07/15 04:26:25;;;;;;;9.52;8.23;;;;;;;;;;10268263;28;20087;-65
2023/07/15 04:31:21;;;;;;;8.48;7.63;;;;;;;;;;10265541;28;20037;-65
2023/07/15 04:36:19;;;;;;;8.95;8.07;;;;;;;;;;10260901;28;20044;-65
2023/07/15 04:41:15;;;;;;;8.45;7.65;;;;;;;;;;10273104;28;20056;-65
2023/07/15 04:46:11;;;;;;;8.60;7.80;;;;;;;;;;10262064;28;20451;-65
2023/07/15 04:51:08;;;;;;;8.20;7.50;;;;;;;;;;10273903;28;20075;-64
2023/07/15 04:56:05;;;;;;;8.60;7.70;;;;;;;;;;10269183;28;20117;-64
2023/07/15 05:01:01;;;;;;;8.00;7.20;;;;;;;;;;10270669;28;20049;-65
2023/07/15 05:05:57;;;;;;;8.55;7.75;;;;;;;;;;10266905;28;20505;-65
2023/07/15 05:10:54;;;;;;;8.32;7.63;;;;;;;;;;10276127;28;20045;-65
2023/07/15 05:15:50;;;;;;;8.88;7.97;;;;;;;;;;10264791;28;20090;-65
2023/07/15 05:20:46;;;;;;;9.18;8.38;;;;;;;;;;10268369;28;21094;-65
2023/07/15 05:25:43;;;;;;;8.18;7.38;;;;;;;;;;10262996;28;20052;-65
2023/07/15 05:30:39;;;;;;;8.55;7.75;;;;;;;;;;10271390;28;20040;-66
2023/07/15 05:35:35;;;;;;;8.05;7.35;;;;;;;;;;10261530;28;20106;-66
2023/07/15 05:40:32;;;;;;;10.05;7.93;;;;;;;;;;10273680;28;20057;-67
2023/07/15 05:45:28;;;;;;;8.60;7.70;;;;;;;;;;10257607;28;20063;-68
2023/07/15 05:50:25;;;;;;;8.98;7.80;;;;;;;;;;10256092;28;20041;-67
2023/07/15 05:55:22;;;;;;;8.13;7.43;;;;;;;;;;10258078;28;20577;-67
2023/07/15 06:00:18;;;;;;;8.73;7.85;;;;;;;;;;10273338;28;20057;-67
2023/07/15 06:05:15;;;;;;;10.88;8.02;;;;;;;;;;10257896;28;20467;-68
2023/07/15 06:10:14;;;;;;;8.75;7.60;;;;;;;;;;10271643;28;20096;-66
2023/07/15 06:15:10;;;;;;;10.70;8.30;;;;;;;;;;10268101;28;20048;-66
2023/07/15 06:20:07;;;;;;;8.45;7.72;;;;;;;;;;10261143;28;20056;-66
2023/07/15 06:25:04;;;;;;;8.63;7.82;;;;;;;;;;10260140;28;20049;-66
2023/07/15 06:30:00;;;;;;;8.20;7.40;;;;;;;;;;10265065;28;20175;-66
2023/07/15 06:34:59;;;;;;;9.02;7.72;;;;;;;;;;10260852;28;20061;-66
2023/07/15 06:39:56;;;;;;;11.35;7.90;;;;;;;;;;10255390;28;20048;-68
2023/07/15 06:44:55;;;;;;;9.10;8.10;;;;;;;;;;10256087;28;20079;-68
2023/07/15 06:49:52;;;;;;;9.30;7.32;;;;;;;;;;10253505;28;20040;-68
2023/07/15 06:54:50;;;;;;;9.98;7.65;;;;;;;;;;10262365;28;20052;-65
2023/07/15 06:59:49;;;;;;;9.07;8.02;;;;;;;;;;10261874;28;20053;-65
2023/07/15 07:04:45;;;;;;;9.07;8.10;;;;;;;;;;10262219;28;20038;-68
2023/07/15 07:09:41;;;;;;;10.02;7.38;;;;;;;;;;10257239;28;20045;-67
2023/07/15 07:14:38;;;;;;;8.35;7.53;;;;;;;;;;10255978;28;20084;-67
2023/07/15 07:19:34;;;;;;;10.07;8.00;;;;;;;;;;10266535;28;20079;-68
2023/07/15 07:24:30;;;;;;;7.93;7.28;;;;;;;;;;10257684;28;20096;-67
2023/07/15 07:29:27;;;;;;;8.98;8.07;;;;;;;;;;10248841;28;20558;-67
2023/07/15 07:34:23;;;;;;;8.48;7.68;;;;;;;;;;10260788;28;20515;-67
2023/07/15 07:39:23;;;;;;;9.23;7.38;;;;;;;;;;10254968;28;20049;-68
2023/07/15 07:44:22;;;;;;;8.82;7.85;;;;;;;;;;10253014;28;20044;-67
2023/07/15 07:49:19;;;;;;;9.23;8.40;;;;;;;;;;10273587;28;20048;-67
2023/07/15 07:54:16;;;;;;;10.65;8.25;;;;;;;;;;10252803;28;20037;-70
2023/07/15 07:59:12;;;;;;;9.98;8.98;;;;;;;;;;10257218;28;20041;-70
2023/07/15 08:04:09;;;;;;;10.88;8.55;;;;;;;;;;10250729;28;20045;-71
2023/07/15 08:09:06;;;;;;;9.88;8.32;;;;;;;;;;10273294;28;20067;-71
2023/07/15 08:14:06;;;;;;;8.77;8.02;;;;;;;;;;10263253;28;20064;-71
2023/07/15 08:19:03;;;;;;;9.13;8.30;;;;;;;;;;10262877;28;20075;-71
2023/07/15 08:24:00;;;;;;;8.52;7.72;;;;;;;;;;10255075;28;20050;-72
2023/07/15 08:28:58;;;;;;;11.93;8.35;;;;;;;;;;10272879;28;20067;-71
2023/07/15 08:33:54;;;;;;;13.68;9.15;;;;;;;;;;10258843;28;20052;-71
2023/07/15 08:38:53;;;;;;;9.38;8.38;;;;;;;;;;10264305;28;20045;-71
2023/07/15 08:43:49;;;;;;;8.95;8.15;;;;;;;;;;10260664;28;20054;-71
2023/07/15 08:48:47;;;;;;;8.90;8.10;;;;;;;;;;10266652;28;20143;-71
2023/07/15 08:53:44;;;;;;;8.95;8.13;;;;;;;;;;10265685;28;20049;-72
2023/07/15 08:58:42;;;;;;;8.63;7.72;;;;;;;;;;10253069;28;20128;-72
2023/07/15 09:03:38;;;;;;;8.90;8.15;;;;;;;;;;10259575;28;20106;-72
2023/07/15 09:08:35;;;;;;;8.10;7.40;;;;;;;;;;10263666;28;20610;-71
2023/07/15 09:13:35;;;;;;;8.57;7.88;;;;;;;;;;10266364;28;20564;-72
2023/07/15 09:18:31;;;;;;;8.65;7.93;;;;;;;;;;10273581;28;20045;-71
2023/07/15 09:23:28;;;;;;;8.00;7.30;;;;;;;;;;10267184;28;20499;-72
2023/07/15 09:28:24;;;;;;;7.70;7.00;;;;;;;;;;10270575;28;20505;-72
2023/07/15 09:33:30;;;;;;;7.95;7.15;;;;;;;;;;10255680;28;20048;-72
2023/07/15 09:38:31;;;;;;;8.25;7.55;;;;;;;;;;10270415;28;20048;-72
2023/07/15 09:43:48;;;;;;;10.38;7.50;;;;;;;;;;10264888;28;20087;-72
2023/07/15 09:48:45;;;;;;;8.30;7.57;;;;;;;;;;10270766;28;20045;-72
2023/07/15 09:53:43;;;;;;;8.23;7.40;;;;;;;;;;10271818;28;20044;-73
2023/07/15 09:58:42;;;;;;;7.72;6.85;;;;;;;;;;10267738;28;20037;-72
2023/07/15 10:03:39;;;;;;;8.13;7.38;;;;;;;;;;10258272;28;20404;-73
2023/07/15 10:08:35;;;;;;;8.13;7.32;;;;;;;;;;10271489;28;20528;-73
2023/07/15 10:13:32;;;;;;;8.48;7.68;;;;;;;;;;10273641;28;20041;-74
2023/07/15 10:18:31;;;;;;;8.20;7.43;;;;;;;;;;10269917;28;20061;-74
2023/07/15 10:23:29;;;;;;;8.40;7.68;;;;;;;;;;10271888;28;20506;-73
2023/07/15 10:28:28;;;;;;;8.57;7.85;;;;;;;;;;10273787;28;20049;-73
2023/07/15 10:33:24;;;;;;;8.88;7.97;;;;;;;;;;10269794;28;20049;-73
2023/07/15 10:38:28;;;;;;;9.38;8.20;;;;;;;;;;10278970;28;20041;-73
2023/07/15 10:43:45;;;;;;;10.15;9.18;;;;;;;;;;10271978;28;20041;-73
2023/07/15 10:48:41;;;;;;;8.48;7.88;;;;;;;;;;10273091;28;20056;-73
2023/07/15 10:53:38;;;;;;;8.85;8.05;;;;;;;;;;10285194;28;20471;-73
2023/07/15 10:58:37;;;;;;;8.27;7.57;;;;;;;;;;10288411;28;20048;-74
2023/07/15 11:03:34;;;;;;;8.23;7.63;;;;;;;;;;10265228;28;20049;-73
2023/07/15 11:08:31;;;;;;;8.02;7.32;;;;;;;;;;10275145;28;20505;-73
2023/07/15 11:13:28;;;;;;;8.27;7.47;;;;;;;;;;10274934;28;20095;-73
2023/07/15 11:18:25;;;;;;;8.52;7.72;;;;;;;;;;10270230;28;20097;-72
2023/07/15 11:23:22;;;;;;;7.70;7.10;;;;;;;;;;10268805;28;20037;-72
2023/07/15 11:28:18;;;;;;;8.45;7.78;;;;;;;;;;10272391;28;20040;-72
2023/07/15 11:33:15;;;;;;;8.07;6.90;;;;;;;;;;10260304;28;20083;-72
2023/07/15 11:38:12;;;;;;;8.82;7.85;;;;;;;;;;10266166;28;20078;-72
2023/07/15 11:43:09;;;;;;;11.82;8.73;;;;;;;;;;10273294;28;20045;-71
2023/07/15 11:48:05;;;;;;;7.88;7.25;;;;;;;;;;10276517;28;20072;-72
2023/07/15 11:53:02;;;;;;;9.15;7.30;;;;;;;;;;10272212;28;20053;-72
2023/07/15 11:57:59;;;;;;;8.07;7.47;;;;;;;;;;10254909;28;20639;-72
2023/07/15 12:02:56;;;;;;;7.70;6.90;;;;;;;;;;10281510;28;20045;-71
2023/07/15 12:07:53;;;;;;;7.85;7.15;;;;;;;;;;10270299;28;20693;-71
2023/07/15 12:12:49;;;;;;;7.78;7.07;;;;;;;;;;10258156;28;20060;-72
2023/07/15 12:17:48;;;;;;;9.23;7.03;;;;;;;;;;10252261;28;20099;-72
2023/07/15 12:22:45;;;;;;;8.60;7.78;;;;;;;;;;10257352;28;21784;-71
2023/07/15 12:27:41;;;;;;;8.82;7.72;;;;;;;;;;10257077;28;20048;-72
2023/07/15 12:32:40;;;;;;;8.48;7.57;;;;;;;;;;10270449;28;20460;-72
2023/07/15 12:37:38;;;;;;;8.35;7.65;;;;;;;;;;10262190;28;20049;-72
2023/07/15 12:42:35;;;;;;;9.85;7.95;;;;;;;;;;10269326;28;20045;-72
2023/07/15 12:47:32;;;;;;;8.60;7.90;;;;;;;;;;10275023;28;20053;-71
2023/07/15 12:52:31;;;;;;;7.72;7.13;;;;;;;;;;10272910;28;20461;-72
2023/07/15 12:57:28;;;;;;;8.32;7.53;;;;;;;;;;10275197;28;20059;-71
2023/07/15 13:02:24;;;;;;;8.18;7.38;;;;;;;;;;10315748;28;20512;-71
2023/07/15 13:07:21;;;;;;;7.78;6.97;;;;;;;;;;10277860;28;20094;-72
2023/07/15 13:12:18;;;;;;;7.32;6.63;;;;;;;;;;10289346;28;20058;-71
2023/07/15 13:17:14;;;;;;;8.52;7.72;;;;;;;;;;10277150;28;20047;-71
2023/07/15 13:22:11;;;;;;;8.10;7.30;;;;;;;;;;10272914;28;20478;-72
2023/07/15 13:27:07;;;;;;;7.88;7.20;;;;;;;;;;10275084;28;20064;-72
2023/07/15 13:32:05;;;;;;;8.52;7.72;;;;;;;;;;10282264;28;20036;-71
2023/07/15 13:37:01;;;;;;;8.15;7.10;;;;;;;;;;10285758;28;20175;-71
2023/07/15 13:41:58;;;;;;;8.60;7.88;;;;;;;;;;10270051;28;20132;-72
2023/07/15 13:46:58;;;;;;;7.45;6.88;;;;;;;;;;10276964;28;20479;-72
2023/07/15 13:51:54;;;;;;;8.13;6.93;;;;;;;;;;10259711;28;20136;-69
2023/07/15 13:56:51;;;;;;;8.13;7.32;;;;;;;;;;10257063;28;20041;-70
2023/07/15 14:01:48;;;;;;;7.50;6.80;;;;;;;;;;10294282;28;20531;-70
2023/07/15 14:06:46;;;;;;;7.15;6.65;;;;;;;;;;10269978;28;20076;-71
2023/07/15 14:11:46;;;;;;;7.50;6.90;;;;;;;;;;10271228;28;20676;-70
2023/07/15 14:16:43;;;;;;;7.30;6.70;;;;;;;;;;10256220;28;20052;-71
2023/07/15 14:21:40;;;;;;;7.75;7.03;;;;;;;;;;10264510;28;20041;-71
2023/07/15 14:26:36;;;;;;;7.82;7.13;;;;;;;;;;10272625;28;20107;-71
2023/07/15 14:31:32;;;;;;;8.10;7.50;;;;;;;;;;10260518;28;20037;-71
2023/07/15 14:36:30;;;;;;;7.70;6.97;;;;;;;;;;10256636;28;20045;-71
2023/07/15 14:41:28;;;;;;;7.70;7.10;;;;;;;;;;10267923;28;20037;-70
2023/07/15 14:46:24;;;;;;;7.43;6.93;;;;;;;;;;10260501;28;20501;-71
2023/07/15 14:51:20;;;;;;;7.45;6.95;;;;;;;;;;10258825;28;20059;-70
2023/07/15 14:56:19;;;;;;;7.25;6.65;;;;;;;;;;10261293;28;20455;-70
2023/07/15 15:01:16;;;;;;;7.07;6.50;;;;;;;;;;10262987;28;20051;-71
2023/07/15 15:06:13;;;;;;;7.18;6.57;;;;;;;;;;10286534;28;20048;-70
2023/07/15 15:11:09;;;;;;;7.05;6.55;;;;;;;;;;10258909;28;20508;-70
2023/07/15 15:16:10;;;;;;;7.68;7.07;;;;;;;;;;10265975;28;20136;-70
2023/07/15 15:21:06;;;;;;;7.32;6.82;;;;;;;;;;10269601;28;20120;-71
2023/07/15 15:26:03;;;;;;;6.93;6.43;;;;;;;;;;10273450;28;20043;-72
2023/07/15 15:30:59;;;;;;;7.93;7.32;;;;;;;;;;10256066;28;20079;-72
2023/07/15 15:35:56;;;;;;;8.25;7.55;;;;;;;;;;10255833;28;20053;-71
2023/07/15 15:40:52;;;;;;;8.43;7.72;;;;;;;;;;10261811;28;20591;-71
2023/07/15 15:45:49;;;;;;;7.43;6.93;;;;;;;;;;10283399;28;20504;-71
2023/07/15 15:50:45;;;;;;;7.97;7.40;;;;;;;;;;10272004;28;20044;-71
2023/07/15 15:55:41;;;;;;;7.78;7.18;;;;;;;;;;10244133;28;20060;-71
2023/07/15 16:00:43;;;;;;;7.28;6.78;;;;;;;;;;10265595;28;20037;-72
2023/07/15 16:05:39;;;;;;;8.10;7.50;;;;;;;;;;10261104;28;20515;-70
2023/07/15 16:10:36;;;;;;;8.23;7.63;;;;;;;;;;10256919;28;20040;-70
2023/07/15 16:15:32;;;;;;;9.40;8.70;;;;;;;;;;10251097;28;20045;-70
2023/07/15 16:20:28;;;;;;;8.50;7.80;;;;;;;;;;10263544;28;20134;-70
2023/07/15 16:25:25;;;;;;;8.23;7.55;;;;;;;;;;10263699;28;20033;-70
2023/07/15 16:30:21;;;;;;;8.20;7.40;;;;;;;;;;10256266;28;20054;-69
2023/07/15 16:35:18;;;;;;;7.97;7.38;;;;;;;;;;10279865;28;20143;-75
2023/07/15 16:40:15;;;;;;;8.15;7.55;;;;;;;;;;10270694;28;20057;-68
2023/07/15 16:45:14;;;;;;;8.55;7.90;;;;;;;;;;10289971;28;20045;-68
2023/07/15 16:50:14;;;;;;;8.45;7.80;;;;;;;;;;10282400;28;20139;-69
2023/07/15 16:55:11;;;;;;;8.10;7.50;;;;;;;;;;10267479;28;20049;-69
2023/07/15 17:00:09;;;;;;;8.63;8.02;;;;;;;;;;10280736;28;20102;-69
2023/07/15 17:05:06;;;;;;;7.80;7.20;;;;;;;;;;10276704;28;20048;-69
2023/07/15 17:10:03;;;;;;;8.38;7.78;;;;;;;;;;10276020;28;20048;-70
2023/07/15 17:14:59;;;;;;;8.07;7.47;;;;;;;;;;10259345;28;20053;-70
2023/07/15 17:19:56;;;;;;;7.78;7.28;;;;;;;;;;10275362;28;20697;-70
2023/07/15 17:24:53;;;;;;;7.80;6.70;;;;;;;;;;10245334;28;20052;-71
2023/07/15 17:29:50;;;;;;;7.80;7.20;;;;;;;;;;10261849;28;20071;-71
2023/07/15 17:34:47;;;;;;;7.72;7.07;;;;;;;;;;10260102;28;20148;-71
2023/07/15 17:39:44;;;;;;;7.28;6.63;;;;;;;;;;10264638;28;20428;-70
2023/07/15 17:44:41;;;;;;;7.90;7.20;;;;;;;;;;10268544;28;20080;-69
2023/07/15 17:49:37;;;;;;;7.03;6.43;;;;;;;;;;10254810;28;20043;-70
2023/07/15 17:54:34;;;;;;;6.97;6.47;;;;;;;;;;10264311;28;20048;-70
2023/07/15 17:59:30;;;;;;;7.35;6.75;;;;;;;;;;10251256;28;20047;-71
2023/07/15 18:04:28;;;;;;;7.53;6.93;;;;;;;;;;10259464;28;20037;-71
2023/07/15 18:09:25;;;;;;;7.63;7.05;;;;;;;;;;10248376;28;20041;-72
2023/07/15 18:14:21;;;;;;;7.00;6.50;;;;;;;;;;10253598;28;20106;-72
2023/07/15 18:19:24;;;;;;;7.65;7.05;;;;;;;;;;10255464;28;20041;-71
2023/07/15 18:24:24;;;;;;;7.95;7.25;;;;;;;;;;10277791;28;20042;-71
2023/07/15 18:29:20;;;;;;;7.90;7.20;;;;;;;;;;10250607;28;20109;-71
2023/07/15 18:34:17;;;;;;;9.20;8.40;;;;;;;;;;10243995;28;20040;-71
2023/07/15 18:39:20;;;;;;;7.78;7.07;;;;;;;;;;10268079;28;20048;-71
2023/07/15 18:44:16;;;;;;;7.75;7.15;;;;;;;;;;10259502;28;20064;-72
2023/07/15 18:49:13;;;;;;;7.70;7.07;;;;;;;;;;10252498;28;20313;-71
2023/07/15 18:54:13;;;;;;;7.53;6.93;;;;;;;;;;10259207;28;20049;-72
2023/07/15 18:59:10;;;;;;;8.00;7.30;;;;;;;;;;10286986;28;20797;-73
2023/07/15 19:04:09;;;;;;;7.55;6.80;;;;;;;;;;10275026;28;20041;-71
2023/07/15 19:09:06;;;;;;;7.60;7.03;;;;;;;;;;10270983;28;20419;-72
2023/07/15 19:14:03;;;;;;;7.45;6.90;;;;;;;;;;10260196;28;20073;-72
2023/07/15 19:19:00;;;;;;;8.27;7.57;;;;;;;;;;10254213;28;20048;-71
2023/07/15 19:23:57;;;;;;;8.30;7.60;;;;;;;;;;10264308;28;20041;-71
2023/07/15 19:28:53;;;;;;;7.55;6.90;;;;;;;;;;10262766;28;20104;-71
2023/07/15 19:33:50;;;;;;;7.78;7.18;;;;;;;;;;10253427;28;20448;-71
2023/07/15 19:38:47;;;;;;;6.90;6.40;;;;;;;;;;10260891;28;20132;-72
2023/07/15 19:43:43;;;;;;;7.70;6.95;;;;;;;;;;10257751;28;20624;-72
2023/07/15 19:48:40;;;;;;;7.70;7.00;;;;;;;;;;10269016;28;20037;-71
2023/07/15 19:53:36;;;;;;;7.65;7.13;;;;;;;;;;10275153;28;20139;-71
2023/07/15 19:58:34;;;;;;;8.52;7.60;;;;;;;;;;10255143;28;20072;-71
2023/07/15 20:03:33;;;;;;;8.38;7.50;;;;;;;;;;10268877;28;20059;-72
2023/07/15 20:08:31;;;;;;;8.57;7.88;;;;;;;;;;10266575;28;20037;-70
2023/07/15 20:13:27;;;;;;;7.72;7.10;;;;;;;;;;10250957;28;20051;-71
2023/07/15 20:18:24;;;;;;;7.60;6.90;;;;;;;;;;10229099;28;20048;-70
2023/07/15 20:23:20;;;;;;;7.63;6.93;;;;;;;;;;10267036;28;20041;-71
2023/07/15 20:28:17;;;;;;;8.32;7.60;;;;;;;;;;10265358;28;20075;-71
2023/07/15 20:33:13;;;;;;;8.55;7.82;;;;;;;;;;10286174;28;20033;-71
2023/07/15 20:38:10;;;;;;;9.40;8.45;;;;;;;;;;10261128;28;20072;-71
2023/07/15 20:43:06;;;;;;;9.77;8.80;;;;;;;;;;10260827;28;20451;-71
2023/07/15 20:48:03;;;;;;;10.07;8.95;;;;;;;;;;10260277;28;20041;-70
2023/07/15 20:52:59;;;;;;;9.98;8.73;;;;;;;;;;10283206;28;20500;-71
2023/07/15 20:57:56;;;;;;;9.38;8.57;;;;;;;;;;10272743;28;20654;-70
2023/07/15 21:02:53;;;;;;;10.05;9.15;;;;;;;;;;10262810;28;20041;-71
2023/07/15 21:07:49;;;;;;;9.57;8.63;;;;;;;;;;10267184;28;20033;-70
2023/07/15 21:12:46;;;;;;;9.75;8.80;;;;;;;;;;10258314;28;20041;-71
2023/07/15 21:17:42;;;;;;;9.20;8.40;;;;;;;;;;10272635;28;20045;-70
2023/07/15 21:22:39;;;;;;;10.05;9.18;;;;;;;;;;10255992;28;20037;-70
2023/07/15 21:27:38;;;;;;;9.07;8.38;;;;;;;;;;10281973;28;20662;-70
2023/07/15 21:32:35;;;;;;;10.18;9.38;;;;;;;;;;10282721;28;20040;-70
2023/07/15 21:37:32;;;;;;;9.45;8.52;;;;;;;;;;10264380;28;20079;-70
2023/07/15 21:42:32;;;;;;;9.55;8.65;;;;;;;;;;10256393;28;20091;-70
2023/07/15 21:47:28;;;;;;;7.57;6.97;;;;;;;;;;10268294;28;20040;-70
2023/07/15 21:52:25;;;;;;;7.80;7.20;;;;;;;;;;10266265;28;20048;-67
2023/07/15 21:57:21;;;;;;;6.95;6.35;;;;;;;;;;10266655;28;20041;-67
2023/07/15 22:02:18;;;;;;;6.75;6.25;;;;;;;;;;10271441;28;20099;-68
2023/07/15 22:07:14;;;;;;;7.75;6.28;;;;;;;;;;10266428;28;20037;-68
2023/07/15 22:12:11;;;;;;;6.60;6.10;;;;;;;;;;10262638;28;20923;-68
2023/07/15 22:17:07;;;;;;;6.50;6.00;;;;;;;;;;10261783;28;20504;-68
2023/07/15 22:22:07;;;;;;;7.07;6.38;;;;;;;;;;10274294;28;20056;-68
2023/07/15 22:27:03;;;;;;;8.05;7.25;;;;;;;;;;10269829;28;20496;-69
2023/07/15 22:31:59;;;;;;;7.47;6.78;;;;;;;;;;10269404;28;20045;-68
2023/07/15 22:36:56;;;;;;;6.85;6.28;;;;;;;;;;10266819;28;20563;-68
2023/07/15 22:41:55;;;;;;;8.20;7.50;;;;;;;;;;10291765;28;20402;-67
2023/07/15 22:46:52;;;;;;;7.68;6.97;;;;;;;;;;10263096;28;20045;-67
2023/07/15 22:51:48;;;;;;;7.70;7.10;;;;;;;;;;10273600;28;20447;-67
2023/07/15 22:56:44;;;;;;;8.48;7.68;;;;;;;;;;10267354;28;20751;-67
2023/07/15 23:01:43;;;;;;;7.68;7.07;;;;;;;;;;10277551;28;20097;-68
2023/07/15 23:06:47;;;;;;;7.75;7.10;;;;;;;;;;10276285;28;20418;-68
2023/07/15 23:11:43;;;;;;;7.68;7.07;;;;;;;;;;10254254;28;20037;-67
2023/07/15 23:16:40;;;;;;;9.45;7.68;;;;;;;;;;10264786;28;20479;-67
2023/07/15 23:21:36;;;;;;;8.55;7.75;;;;;;;;;;10267564;28;20044;-67
2023/07/15 23:26:33;;;;;;;8.05;7.10;;;;;;;;;;10270952;28;20037;-68
2023/07/15 23:31:29;;;;;;;7.68;7.07;;;;;;;;;;10272828;28;20435;-69
2023/07/15 23:36:25;;;;;;;8.38;7.63;;;;;;;;;;10254377;28;20652;-68
2023/07/15 23:41:22;;;;;;;8.82;8.13;;;;;;;;;;10273688;28;20123;-67
2023/07/15 23:46:18;;;;;;;9.40;8.60;;;;;;;;;;10261150;28;20041;-69
2023/07/15 23:51:15;;;;;;;10.70;8.32;;;;;;;;;;10259312;28;20516;-68
2023/07/15 23:56:11;;;;;;;8.93;8.02;;;;;;;;;;10265338;28;20118;-67
